createdAt,value
2024-05-09T00:00:41.257Z,39.26
2024-05-09T00:03:10.421Z,39.07
2024-05-09T00:05:40.858Z,40.20
2024-05-09T00:08:09.368Z,39.19
2024-05-09T00:10:38.780Z,38.63
2024-05-09T00:13:08.001Z,41.17
2024-05-09T00:15:35.978Z,43.06
2024-05-09T00:18:04.565Z,40.45
2024-05-09T00:20:38.373Z,39.87
2024-05-09T00:23:12.319Z,39.98
2024-05-09T00:25:42.684Z,41.21
2024-05-09T00:28:10.110Z,40.37
2024-05-09T00:30:37.658Z,40.71
2024-05-09T00:33:07.167Z,40.65
2024-05-09T00:35:35.551Z,40.26
2024-05-09T00:38:02.845Z,40.62
2024-05-09T00:40:40.979Z,41.55
2024-05-09T00:43:14.686Z,39.92
2024-05-09T00:45:43.634Z,40.65
2024-05-09T00:48:15.195Z,39.11
2024-05-09T00:50:46.033Z,39.90
2024-05-09T00:53:15.734Z,40.13
2024-05-09T00:55:43.821Z,40.11
2024-05-09T00:58:14.563Z,42.17
2024-05-09T01:00:42.063Z,42.69
2024-05-09T01:03:13.676Z,41.99
2024-05-09T01:05:42.993Z,40.03
2024-05-09T01:08:11.190Z,41.70
2024-05-09T01:10:39.515Z,41.90
2024-05-09T01:13:07.784Z,42.08
2024-05-09T01:15:35.860Z,42.41
2024-05-09T01:18:09.775Z,40.64
2024-05-09T01:20:42.069Z,40.41
2024-05-09T01:23:12.434Z,43.22
2024-05-09T01:25:40.200Z,40.99
2024-05-09T01:28:07.635Z,40.59
2024-05-09T01:30:37.096Z,40.98
2024-05-09T01:33:08.044Z,40.25
2024-05-09T01:35:37.368Z,42.60
2024-05-09T01:38:05.117Z,40.35
2024-05-09T01:40:37.858Z,39.65
2024-05-09T01:43:08.899Z,41.24
2024-05-09T01:45:37.059Z,42.63
2024-05-09T01:48:04.754Z,40.75
2024-05-09T01:50:38.270Z,40.72
2024-05-09T01:53:13.847Z,42.12
2024-05-09T01:55:41.710Z,40.99
2024-05-09T01:58:09.576Z,42.33
2024-05-09T02:00:40.906Z,39.01
2024-05-09T02:03:14.811Z,39.22
2024-05-09T02:05:48.233Z,41.00
2024-05-09T02:08:24.653Z,38.71
2024-05-09T02:10:51.827Z,38.99
2024-05-09T02:13:18.955Z,39.16
2024-05-09T02:15:46.145Z,39.37
2024-05-09T02:18:14.006Z,39.12
2024-05-09T02:20:42.522Z,38.62
2024-05-09T02:23:10.299Z,40.55
2024-05-09T02:25:37.883Z,39.68
2024-05-09T02:28:05.273Z,39.68
2024-05-09T02:30:40.227Z,39.05
2024-05-09T02:33:11.676Z,38.54
2024-05-09T02:35:41.337Z,40.85
2024-05-09T02:38:09.869Z,40.30
2024-05-09T02:40:39.126Z,42.12
2024-05-09T02:43:09.808Z,39.55
2024-05-09T02:45:38.303Z,40.61
2024-05-09T02:48:06.191Z,39.21
2024-05-09T02:50:38.342Z,38.97
2024-05-09T02:53:14.449Z,39.29
2024-05-09T02:55:42.533Z,39.15
2024-05-09T02:58:10.623Z,39.19
2024-05-09T03:00:41.080Z,38.40
2024-05-09T03:03:12.619Z,38.80
2024-05-09T03:05:42.189Z,38.95
2024-05-09T03:08:09.704Z,38.69
2024-05-09T03:10:38.715Z,37.75
2024-05-09T03:13:13.277Z,39.15
2024-05-09T03:15:42.121Z,39.07
2024-05-09T03:18:09.542Z,39.53
2024-05-09T03:20:37.336Z,38.71
2024-05-09T03:23:06.506Z,39.55
2024-05-09T03:25:34.040Z,39.61
2024-05-09T03:28:01.467Z,39.33
2024-05-09T03:30:39.048Z,39.25
2024-05-09T03:33:15.545Z,40.47
2024-05-09T03:35:44.297Z,39.64
2024-05-09T03:38:11.623Z,39.25
2024-05-09T03:40:48.622Z,39.46
2024-05-09T03:43:16.827Z,39.00
2024-05-09T03:45:43.879Z,39.49
2024-05-09T03:48:11.151Z,39.36
2024-05-09T03:50:38.620Z,38.97
2024-05-09T03:53:06.055Z,39.21
2024-05-09T03:55:33.108Z,38.60
2024-05-09T03:58:00.231Z,39.37
2024-05-09T04:00:35.487Z,38.11
2024-05-09T04:03:08.765Z,39.83
2024-05-09T04:05:40.031Z,40.87
2024-05-09T04:08:07.899Z,39.84
2024-05-09T04:10:35.637Z,39.87
2024-05-09T04:13:04.058Z,41.38
2024-05-09T04:15:31.758Z,41.66
2024-05-09T04:17:59.327Z,41.25
2024-05-09T04:22:56.709Z,40.58
2024-05-09T04:25:23.768Z,39.77
2024-05-09T04:27:50.791Z,39.35
2024-05-09T04:30:25.774Z,39.15
2024-05-09T04:33:01.115Z,40.83
2024-05-09T04:35:28.608Z,39.16
2024-05-09T04:37:55.694Z,41.20
2024-05-09T04:40:30.775Z,42.04
2024-05-09T04:43:01.059Z,39.99
2024-05-09T04:45:28.115Z,41.32
2024-05-09T04:47:55.352Z,39.86
2024-05-09T04:50:30.195Z,40.02
2024-05-09T04:53:03.906Z,39.39
2024-05-09T04:55:31.340Z,40.04
2024-05-09T04:57:58.388Z,40.27
2024-05-09T05:00:34.537Z,42.25
2024-05-09T05:03:07.441Z,39.59
2024-05-09T05:05:38.119Z,41.57
2024-05-09T05:08:06.138Z,41.29
2024-05-09T05:10:36.021Z,40.64
2024-05-09T05:13:18.330Z,41.49
2024-05-09T05:15:47.479Z,41.00
2024-05-09T05:18:16.109Z,43.03
2024-05-09T05:20:43.696Z,42.43
2024-05-09T05:23:15.489Z,41.10
2024-05-09T05:25:42.947Z,43.16
2024-05-09T05:28:10.855Z,42.11
2024-05-09T05:30:38.687Z,41.90
2024-05-09T05:33:07.083Z,42.75
2024-05-09T05:35:35.074Z,42.36
2024-05-09T05:38:03.275Z,40.62
2024-05-09T05:40:37.175Z,42.44
2024-05-09T05:43:06.390Z,41.47
2024-05-09T05:45:33.389Z,40.69
2024-05-09T05:48:04.219Z,41.84
2024-05-09T05:50:36.029Z,40.54
2024-05-09T05:53:09.122Z,41.09
2024-05-09T05:55:37.849Z,41.29
2024-05-09T05:58:07.432Z,39.63
2024-05-09T06:00:38.669Z,42.27
2024-05-09T06:03:12.331Z,42.57
2024-05-09T06:05:40.759Z,42.47
2024-05-09T06:08:08.574Z,41.37
2024-05-09T06:10:39.377Z,40.66
2024-05-09T06:13:11.702Z,40.97
2024-05-09T06:15:40.061Z,42.42
2024-05-09T06:18:08.968Z,43.81
2024-05-09T06:20:38.180Z,40.90
2024-05-09T06:23:06.645Z,39.02
2024-05-09T06:25:35.101Z,41.60
2024-05-09T06:28:03.247Z,41.57
2024-05-09T06:30:37.870Z,40.12
2024-05-09T06:33:09.928Z,39.47
2024-05-09T06:35:38.377Z,40.46
2024-05-09T06:38:06.574Z,41.21
2024-05-09T06:40:37.879Z,38.44
2024-05-09T06:43:18.847Z,40.55
2024-05-09T06:45:53.108Z,40.80
2024-05-09T06:48:21.442Z,41.51
2024-05-09T06:50:50.132Z,41.16
2024-05-09T06:53:17.962Z,40.62
2024-05-09T06:55:45.233Z,40.38
2024-05-09T06:58:12.384Z,39.59
2024-05-09T07:00:41.319Z,39.10
2024-05-09T07:03:16.992Z,39.78
2024-05-09T07:05:47.464Z,39.95
2024-05-09T07:08:15.912Z,39.41
2024-05-09T07:10:43.190Z,37.59
2024-05-09T07:13:11.709Z,38.57
2024-05-09T07:15:39.585Z,40.25
2024-05-09T07:18:17.851Z,42.48
2024-05-09T07:20:47.011Z,43.29
2024-05-09T07:23:14.503Z,42.56
2024-05-09T07:25:42.099Z,42.74
2024-05-09T07:28:20.587Z,42.05
2024-05-09T07:30:47.957Z,38.46
2024-05-09T07:33:20.052Z,41.91
2024-05-09T07:35:48.721Z,40.61
2024-05-09T07:38:15.837Z,40.19
2024-05-09T07:40:43.293Z,38.65
2024-05-09T07:43:14.421Z,40.10
2024-05-09T07:45:50.736Z,38.82
2024-05-09T07:52:37.302Z,37.51
2024-05-09T07:53:47.244Z,40.66
2024-05-09T07:56:18.298Z,36.57
2024-05-09T07:58:46.529Z,38.65
2024-05-09T08:01:13.721Z,41.53
2024-05-09T08:03:41.033Z,38.65
2024-05-09T08:06:08.223Z,40.38
2024-05-09T08:08:35.261Z,42.54
2024-05-09T08:11:02.858Z,39.77
2024-05-09T08:13:29.981Z,35.48
2024-05-09T08:15:57.176Z,38.48
2024-05-09T08:18:24.343Z,40.49
2024-05-09T08:20:52.158Z,42.71
2024-05-09T08:23:19.174Z,41.19
2024-05-09T08:25:46.247Z,38.19
2024-05-09T08:28:13.445Z,36.63
2024-05-09T08:30:40.739Z,36.49
2024-05-09T08:33:08.309Z,37.73
2024-05-09T08:35:36.082Z,37.44
2024-05-09T08:38:04.589Z,35.13
2024-05-09T08:40:35.763Z,35.96
2024-05-09T08:43:12.303Z,37.93
2024-05-09T08:45:43.930Z,39.31
2024-05-09T08:48:15.518Z,38.77
2024-05-09T08:50:44.805Z,37.59
2024-05-09T08:53:12.917Z,35.50
2024-05-09T08:55:43.296Z,37.71
2024-05-09T08:58:16.647Z,37.10
2024-05-09T09:00:45.204Z,38.11
2024-05-09T09:03:18.905Z,36.29
2024-05-09T09:06:14.652Z,33.89
2024-05-09T09:08:41.891Z,35.93
2024-05-09T09:11:08.918Z,34.80
2024-05-09T09:13:35.966Z,33.62
2024-05-09T09:16:04.112Z,36.82
2024-05-09T09:18:32.952Z,38.89
2024-05-09T09:21:01.011Z,35.65
2024-05-09T09:23:30.221Z,35.09
2024-05-09T09:26:00.861Z,33.28
2024-05-09T09:28:28.255Z,34.73
2024-05-09T09:31:01.593Z,37.56
2024-05-09T09:33:31.720Z,34.32
2024-05-09T09:35:59.365Z,33.02
2024-05-09T09:38:29.029Z,36.26
2024-05-09T09:40:56.156Z,31.99
2024-05-09T09:43:23.889Z,33.30
2024-05-09T09:45:53.427Z,33.34
2024-05-09T09:48:22.899Z,35.46
2024-05-09T09:50:52.656Z,33.14
2024-05-09T09:53:19.878Z,32.61
2024-05-09T09:55:48.447Z,32.92
2024-05-09T09:58:17.628Z,32.45
2024-05-09T10:00:45.624Z,30.18
2024-05-09T10:03:13.134Z,32.37
2024-05-09T10:05:43.253Z,32.42
2024-05-09T10:08:13.935Z,31.25
2024-05-09T10:10:46.754Z,34.60
2024-05-09T10:13:14.002Z,35.87
2024-05-09T10:15:59.242Z,32.26
2024-05-09T10:18:36.700Z,32.73
2024-05-09T10:21:16.186Z,32.62
2024-05-09T10:24:00.786Z,31.92
2024-05-09T10:26:38.474Z,32.54
2024-05-09T10:29:15.646Z,30.67
2024-05-09T10:31:44.617Z,32.88
2024-05-09T10:34:20.652Z,31.14
2024-05-09T10:36:55.221Z,33.13
2024-05-09T10:39:22.598Z,33.12
2024-05-09T10:41:50.098Z,32.63
2024-05-09T10:44:18.596Z,31.93
2024-05-09T10:46:46.427Z,33.94
2024-05-09T10:49:17.175Z,30.07
2024-05-09T10:51:45.398Z,32.60
2024-05-09T10:54:12.524Z,33.97
2024-05-09T10:56:39.645Z,32.19
2024-05-09T10:59:06.789Z,32.45
2024-05-09T11:01:33.887Z,31.29
2024-05-09T11:04:03.854Z,31.85
2024-05-09T11:06:31.180Z,34.28
2024-05-09T11:08:58.358Z,31.11
2024-05-09T11:11:26.648Z,31.30
2024-05-09T11:13:53.727Z,32.48
2024-05-09T11:16:21.570Z,35.09
2024-05-09T11:18:58.570Z,32.12
2024-05-09T11:21:26.250Z,31.23
2024-05-09T11:23:53.466Z,31.08
2024-05-09T11:26:22.331Z,30.22
2024-05-09T11:28:51.037Z,30.12
2024-05-09T11:31:18.678Z,30.26
2024-05-09T11:33:47.014Z,30.00
2024-05-09T11:36:14.673Z,29.53
2024-05-09T11:38:41.779Z,31.41
2024-05-09T11:41:08.857Z,30.37
2024-05-09T11:43:35.901Z,30.08
2024-05-09T11:46:03.824Z,29.34
2024-05-09T11:48:32.117Z,32.41
2024-05-09T11:50:59.560Z,28.92
2024-05-09T11:53:26.681Z,26.73
2024-05-09T11:55:54.041Z,27.55
2024-05-09T11:58:23.115Z,27.89
2024-05-09T12:00:50.503Z,31.89
2024-05-09T12:03:18.534Z,32.36
2024-05-09T12:05:45.828Z,30.73
2024-05-09T12:08:13.330Z,33.12
2024-05-09T12:10:40.797Z,31.10
2024-05-09T12:13:08.247Z,30.38
2024-05-09T12:15:37.929Z,30.01
2024-05-09T12:18:07.307Z,29.36
2024-05-09T12:20:38.250Z,28.52
2024-05-09T12:23:09.385Z,31.51
2024-05-09T12:25:40.788Z,30.19
2024-05-09T12:28:08.835Z,27.30
2024-05-09T12:30:40.140Z,29.84
2024-05-09T12:33:12.739Z,29.29
2024-05-09T12:35:44.068Z,31.05
2024-05-09T12:38:15.365Z,31.96
2024-05-09T12:40:43.028Z,30.44
2024-05-09T12:43:11.458Z,33.89
2024-05-09T12:45:40.182Z,32.82
2024-05-09T12:48:12.350Z,31.45
2024-05-09T12:50:40.853Z,33.15
2024-05-09T12:53:08.269Z,32.74
2024-05-09T12:55:44.310Z,31.49
2024-05-09T12:58:22.374Z,31.73
2024-05-09T13:00:51.836Z,31.14
2024-05-09T13:03:19.387Z,30.23
2024-05-09T13:05:46.887Z,29.22
2024-05-09T13:08:14.360Z,28.20
2024-05-09T13:10:42.172Z,27.38
2024-05-09T13:13:10.895Z,27.70
2024-05-09T13:15:39.236Z,27.68
2024-05-09T13:18:07.359Z,27.33
2024-05-09T13:20:36.773Z,29.58
2024-05-09T13:23:07.219Z,27.74
2024-05-09T13:25:35.593Z,26.86
2024-05-09T13:28:04.256Z,26.35
2024-05-09T13:30:39.230Z,25.78
2024-05-09T13:33:13.711Z,26.02
2024-05-09T13:35:46.897Z,27.62
2024-05-09T13:38:17.649Z,26.17
2024-05-09T13:40:45.897Z,29.37
2024-05-09T13:43:13.410Z,27.53
2024-05-09T13:45:40.674Z,26.07
2024-05-09T13:48:10.011Z,26.76
2024-05-09T13:50:37.621Z,25.87
2024-05-09T13:53:06.923Z,25.05
2024-05-09T13:55:37.359Z,26.90
2024-05-09T13:58:04.838Z,26.15
2024-05-09T14:00:42.628Z,25.10
2024-05-09T14:03:15.893Z,25.68
2024-05-09T14:05:43.708Z,27.44
2024-05-09T14:08:11.614Z,24.67
2024-05-09T14:10:44.710Z,26.05
2024-05-09T14:13:13.221Z,25.22
2024-05-09T14:15:41.313Z,25.50
2024-05-09T14:18:12.375Z,24.47
2024-05-09T14:20:42.702Z,25.16
2024-05-09T14:23:09.983Z,26.87
2024-05-09T14:25:43.238Z,25.13
2024-05-09T14:28:12.520Z,28.58
2024-05-09T14:30:40.431Z,28.42
2024-05-09T14:33:08.878Z,27.74
2024-05-09T14:35:38.582Z,28.50
2024-05-09T14:38:07.761Z,26.84
2024-05-09T14:40:41.719Z,29.00
2024-05-09T14:43:12.722Z,24.40
2024-05-09T14:45:40.622Z,24.76
2024-05-09T14:48:08.535Z,25.89
2024-05-09T14:50:38.826Z,25.28
2024-05-09T14:53:11.359Z,25.38
2024-05-09T14:55:40.506Z,26.71
2024-05-09T14:58:13.171Z,26.79
2024-05-09T15:00:46.270Z,26.00
2024-05-09T15:03:18.211Z,27.23
2024-05-09T15:05:45.685Z,27.55
2024-05-09T15:08:12.776Z,27.26
2024-05-09T15:10:40.105Z,25.79
2024-05-09T15:13:09.659Z,26.99
2024-05-09T15:15:38.459Z,26.33
2024-05-09T15:18:06.409Z,25.06
2024-05-09T15:20:36.343Z,26.41
2024-05-09T15:23:06.215Z,27.94
2024-05-09T15:25:34.554Z,27.27
2024-05-09T15:28:01.787Z,25.15
2024-05-09T15:30:32.130Z,27.70
2024-05-09T15:33:03.370Z,28.19
2024-05-09T15:35:33.286Z,26.74
2024-05-09T15:38:03.022Z,28.31
2024-05-09T15:40:37.757Z,27.16
2024-05-09T15:43:08.692Z,26.15
2024-05-09T15:45:36.901Z,28.07
2024-05-09T15:48:04.733Z,27.48
2024-05-09T15:50:37.609Z,28.21
2024-05-09T15:53:09.223Z,26.86
2024-05-09T15:55:37.088Z,26.30
2024-05-09T15:58:05.641Z,26.46
2024-05-09T16:00:38.099Z,29.33
2024-05-09T16:03:13.974Z,27.08
2024-05-09T16:05:44.912Z,28.39
2024-05-09T16:08:13.259Z,29.63
2024-05-09T16:10:44.598Z,28.33
2024-05-09T16:13:13.282Z,26.88
2024-05-09T16:15:40.835Z,28.17
2024-05-09T16:18:08.242Z,30.53
2024-05-09T16:20:40.117Z,28.39
2024-05-09T16:23:10.392Z,30.09
2024-05-09T16:25:39.752Z,27.91
2024-05-09T16:28:09.996Z,28.16
2024-05-09T16:30:41.142Z,31.04
2024-05-09T16:33:09.270Z,29.44
2024-05-09T16:35:37.589Z,31.12
2024-05-09T16:38:06.257Z,31.27
2024-05-09T16:40:38.269Z,30.75
2024-05-09T16:43:08.997Z,28.53
2024-05-09T16:45:37.180Z,29.08
2024-05-09T16:48:05.041Z,29.26
2024-05-09T16:50:34.480Z,29.13
2024-05-09T16:53:07.069Z,31.68
2024-05-09T16:55:37.341Z,30.88
2024-05-09T16:58:06.995Z,29.10
2024-05-09T17:00:40.826Z,28.70
2024-05-09T17:03:13.180Z,28.28
2024-05-09T17:05:41.940Z,29.84
2024-05-09T17:08:09.538Z,30.40
2024-05-09T17:10:37.095Z,30.38
2024-05-09T17:13:06.191Z,29.97
2024-05-09T17:15:35.505Z,29.16
2024-05-09T17:18:04.089Z,28.79
2024-05-09T17:20:34.748Z,29.71
2024-05-09T17:23:05.521Z,29.05
2024-05-09T17:25:33.643Z,30.63
2024-05-09T17:28:07.652Z,30.08
2024-05-09T17:30:39.309Z,29.29
2024-05-09T17:33:09.831Z,29.33
2024-05-09T17:35:38.462Z,28.99
2024-05-09T17:38:06.619Z,30.51
2024-05-09T17:40:36.552Z,28.97
2024-05-09T17:43:06.922Z,32.67
2024-05-09T17:45:37.810Z,35.12
2024-05-09T17:48:05.385Z,33.11
2024-05-09T17:50:35.987Z,32.84
2024-05-09T17:53:08.737Z,37.00
2024-05-09T17:55:36.776Z,37.71
2024-05-09T17:58:05.321Z,38.02
2024-05-09T18:00:39.071Z,38.88
2024-05-09T18:03:12.358Z,38.78
2024-05-09T18:05:41.099Z,38.22
2024-05-09T18:08:08.997Z,39.13
2024-05-09T18:10:39.003Z,38.55
2024-05-09T18:13:11.381Z,38.40
2024-05-09T18:15:39.626Z,38.09
2024-05-09T18:18:07.760Z,39.86
2024-05-09T18:20:42.217Z,38.00
2024-05-09T18:23:18.775Z,40.66
2024-05-09T18:25:47.119Z,39.67
2024-05-09T18:28:15.710Z,41.17
2024-05-09T18:30:43.361Z,37.58
2024-05-09T18:33:11.563Z,37.20
2024-05-09T18:35:39.288Z,39.41
2024-05-09T18:38:06.425Z,41.71
2024-05-09T18:40:36.588Z,41.21
2024-05-09T18:43:08.043Z,38.70
2024-05-09T18:45:37.788Z,38.77
2024-05-09T18:48:06.709Z,38.57
2024-05-09T18:50:38.005Z,41.36
2024-05-09T18:53:07.880Z,41.63
2024-05-09T18:55:35.269Z,40.60
2024-05-09T18:58:03.614Z,40.82
2024-05-09T19:00:35.651Z,40.36
2024-05-09T19:03:11.564Z,40.04
2024-05-09T19:05:41.655Z,38.06
2024-05-09T19:08:09.663Z,40.74
2024-05-09T19:10:38.652Z,40.83
2024-05-09T19:13:10.828Z,40.76
2024-05-09T19:15:41.118Z,39.61
2024-05-09T19:18:09.978Z,40.48
2024-05-09T19:20:38.166Z,42.34
2024-05-09T19:23:06.530Z,40.90
2024-05-09T19:25:34.766Z,42.88
2024-05-09T19:28:03.483Z,40.29
2024-05-09T19:30:38.454Z,39.33
2024-05-09T19:33:10.213Z,38.67
2024-05-09T19:35:38.854Z,39.86
2024-05-09T19:38:06.592Z,42.26
2024-05-09T19:40:35.152Z,41.24
2024-05-09T19:43:04.238Z,39.76
2024-05-09T19:45:33.778Z,40.13
2024-05-09T19:48:02.229Z,42.11
2024-05-09T19:50:37.382Z,41.61
2024-05-09T19:53:10.350Z,42.54
2024-05-09T19:55:38.049Z,40.04
2024-05-09T19:58:07.346Z,43.53
2024-05-09T20:00:41.919Z,42.14
2024-05-09T20:03:12.290Z,43.11
2024-05-09T20:05:39.942Z,43.10
2024-05-09T20:08:07.384Z,39.83
2024-05-09T20:10:36.026Z,40.50
2024-05-09T20:13:06.662Z,40.37
2024-05-09T20:15:37.063Z,38.57
2024-05-09T20:18:05.327Z,40.04
2024-05-09T20:20:39.127Z,38.05
2024-05-09T20:23:09.995Z,39.27
2024-05-09T20:25:37.352Z,40.04
2024-05-09T20:28:06.593Z,39.97
2024-05-09T20:30:35.303Z,39.56
2024-05-09T20:33:04.926Z,39.28
2024-05-09T20:35:33.563Z,39.11
2024-05-09T20:38:02.337Z,38.81
2024-05-09T20:40:34.604Z,38.55
2024-05-09T20:43:06.002Z,38.22
2024-05-09T20:45:34.108Z,39.01
2024-05-09T20:48:01.702Z,39.71
2024-05-09T20:50:36.943Z,39.66
2024-05-09T20:53:12.884Z,39.22
2024-05-09T20:55:41.257Z,39.49
2024-05-09T20:58:09.921Z,39.16
2024-05-09T21:00:41.029Z,39.81
2024-05-09T21:03:11.964Z,39.45
2024-05-09T21:05:39.891Z,38.56
2024-05-09T21:08:07.839Z,39.14
2024-05-09T21:10:36.995Z,39.53
2024-05-09T21:13:05.841Z,39.56
2024-05-09T21:15:33.916Z,40.58
2024-05-09T21:18:01.443Z,39.87
2024-05-09T21:20:31.585Z,38.64
2024-05-09T21:23:01.067Z,39.96
2024-05-09T21:25:28.365Z,41.31
2024-05-09T21:27:55.681Z,40.94
2024-05-09T21:30:41.512Z,38.81
2024-05-09T21:33:12.644Z,38.94
2024-05-09T21:35:42.889Z,39.26
2024-05-09T21:38:10.465Z,38.89
2024-05-09T21:40:38.307Z,38.69
2024-05-09T21:43:07.822Z,38.74
2024-05-09T21:45:38.109Z,38.91
2024-05-09T21:48:06.666Z,38.46
2024-05-09T21:50:39.897Z,38.52
2024-05-09T21:53:12.746Z,39.13
2024-05-09T21:55:40.498Z,40.56
2024-05-09T21:58:08.026Z,38.56
2024-05-09T22:00:38.254Z,38.54
2024-05-09T22:03:11.002Z,37.38
2024-05-09T22:05:42.358Z,39.22
2024-05-09T22:08:11.100Z,38.55
2024-05-09T22:10:38.552Z,38.10
2024-05-09T22:13:09.158Z,38.65
2024-05-09T22:15:38.620Z,38.22
2024-05-09T22:18:08.595Z,38.38
2024-05-09T22:20:39.321Z,38.37
2024-05-09T22:23:09.125Z,38.57
2024-05-09T22:25:37.264Z,39.24
2024-05-09T22:28:05.065Z,37.87
2024-05-09T22:30:37.128Z,38.91
2024-05-09T22:33:08.440Z,38.61
2024-05-09T22:35:39.584Z,38.91
2024-05-09T22:38:06.811Z,38.82
2024-05-09T22:40:43.354Z,38.95
2024-05-09T22:43:23.693Z,39.39
2024-05-09T22:45:54.908Z,38.58
2024-05-09T22:48:23.917Z,38.20
2024-05-09T22:50:51.692Z,39.67
2024-05-09T22:53:19.051Z,39.66
2024-05-09T22:55:46.101Z,39.13
2024-05-09T22:58:13.387Z,38.70
2024-05-09T23:00:40.545Z,39.71
2024-05-09T23:03:07.770Z,39.19
2024-05-09T23:05:34.992Z,38.90
2024-05-09T23:08:02.699Z,37.69
2024-05-09T23:10:35.750Z,38.22
2024-05-09T23:13:06.958Z,38.93
2024-05-09T23:15:34.963Z,39.92
2024-05-09T23:18:02.275Z,39.23
2024-05-09T23:20:36.515Z,38.53
2024-05-09T23:23:10.392Z,38.12
2024-05-09T23:25:38.988Z,38.04
2024-05-09T23:28:06.422Z,38.86
2024-05-09T23:30:38.333Z,38.10
2024-05-09T23:33:09.686Z,38.77
2024-05-09T23:35:37.339Z,39.58
2024-05-09T23:38:05.269Z,39.67
2024-05-09T23:43:03.737Z,37.94
2024-05-09T23:45:31.235Z,39.36
2024-05-09T23:47:58.573Z,37.71
2024-05-09T23:50:33.628Z,38.19
2024-05-09T23:53:03.915Z,38.34
2024-05-09T23:55:31.930Z,39.48
2024-05-09T23:57:59.844Z,40.21
